sensor_id;sensor_type;location;lat;lon;timestamp;pressure;altitude;pressure_sealevel;temperature;humidity
39681;BME280;26327;42.550;23.120;2024-01-25T00:01:57;93355.09;;;3.60;95.09
39681;BME280;26327;42.550;23.120;2024-01-25T00:04:22;93301.31;;;3.37;95.02
39681;BME280;26327;42.550;23.120;2024-01-25T00:06:48;93353.13;;;3.94;93.06
39681;BME280;26327;42.550;23.120;2024-01-25T00:09:13;93301.44;;;3.66;91.82
39681;BME280;26327;42.550;23.120;2024-01-25T00:11:38;93312.97;;;3.72;92.15
39681;BME280;26327;42.550;23.120;2024-01-25T00:14:04;93287.19;;;3.53;92.81
39681;BME280;26327;42.550;23.120;2024-01-25T00:16:30;93326.88;;;3.90;92.22
39681;BME280;26327;42.550;23.120;2024-01-25T00:18:55;93302.69;;;3.72;91.67
39681;BME280;26327;42.550;23.120;2024-01-25T00:21:20;93323.06;;;3.85;91.29
39681;BME280;26327;42.550;23.120;2024-01-25T00:23:46;93332.44;;;3.95;91.16
39681;BME280;26327;42.550;23.120;2024-01-25T00:26:12;93276.78;;;3.54;92.15
39681;BME280;26327;42.550;23.120;2024-01-25T00:28:37;93291.97;;;3.67;93.19
39681;BME280;26327;42.550;23.120;2024-01-25T00:31:03;93248.50;;;3.03;95.80
39681;BME280;26327;42.550;23.120;2024-01-25T00:33:28;93240.75;;;2.93;96.24
39681;BME280;26327;42.550;23.120;2024-01-25T00:35:54;93287.09;;;3.33;95.15
39681;BME280;26327;42.550;23.120;2024-01-25T00:38:19;93304.19;;;3.44;94.46
39681;BME280;26327;42.550;23.120;2024-01-25T00:40:45;93289.19;;;3.49;93.83
39681;BME280;26327;42.550;23.120;2024-01-25T00:43:11;93301.00;;;3.61;93.96
39681;BME280;26327;42.550;23.120;2024-01-25T00:45:36;93274.34;;;3.53;94.39
39681;BME280;26327;42.550;23.120;2024-01-25T00:48:02;93277.47;;;3.56;94.83
39681;BME280;26327;42.550;23.120;2024-01-25T00:50:28;93271.44;;;3.36;94.97
39681;BME280;26327;42.550;23.120;2024-01-25T00:52:53;93288.28;;;3.60;93.98
39681;BME280;26327;42.550;23.120;2024-01-25T00:55:19;93233.59;;;3.17;92.67
39681;BME280;26327;42.550;23.120;2024-01-25T00:57:45;93234.28;;;3.20;92.86
39681;BME280;26327;42.550;23.120;2024-01-25T01:00:11;93232.22;;;3.34;92.61
39681;BME280;26327;42.550;23.120;2024-01-25T01:02:40;93222.06;;;3.12;93.20
39681;BME280;26327;42.550;23.120;2024-01-25T01:05:08;93273.56;;;3.31;95.39
39681;BME280;26327;42.550;23.120;2024-01-25T01:07:34;93176.84;;;2.90;93.44
39681;BME280;26327;42.550;23.120;2024-01-25T01:09:59;93193.19;;;2.89;93.68
39681;BME280;26327;42.550;23.120;2024-01-25T01:12:25;93292.16;;;3.44;94.74
39681;BME280;26327;42.550;23.120;2024-01-25T01:14:50;93286.13;;;3.55;92.82
39681;BME280;26327;42.550;23.120;2024-01-25T01:17:15;93305.84;;;3.55;92.54
39681;BME280;26327;42.550;23.120;2024-01-25T01:19:41;93247.25;;;3.18;93.16
39681;BME280;26327;42.550;23.120;2024-01-25T01:22:07;93225.50;;;3.22;92.86
39681;BME280;26327;42.550;23.120;2024-01-25T01:24:32;93233.38;;;3.30;93.65
39681;BME280;26327;42.550;23.120;2024-01-25T01:26:57;93236.44;;;3.45;92.01
39681;BME280;26327;42.550;23.120;2024-01-25T01:32:46;93276.91;;;3.83;91.12
39681;BME280;26327;42.550;23.120;2024-01-25T01:38:33;93282.47;;;3.88;93.75
39681;BME280;26327;42.550;23.120;2024-01-25T01:40:58;93275.72;;;3.87;92.65
39681;BME280;26327;42.550;23.120;2024-01-25T01:43:23;93209.84;;;3.56;93.02
39681;BME280;26327;42.550;23.120;2024-01-25T01:45:49;93229.72;;;3.54;93.83
39681;BME280;26327;42.550;23.120;2024-01-25T01:48:16;93256.69;;;3.69;93.81
39681;BME280;26327;42.550;23.120;2024-01-25T01:50:45;93194.66;;;3.12;94.07
39681;BME280;26327;42.550;23.120;2024-01-25T01:53:11;93249.06;;;3.06;95.46
39681;BME280;26327;42.550;23.120;2024-01-25T01:55:38;93249.38;;;3.13;96.93
39681;BME280;26327;42.550;23.120;2024-01-25T01:58:04;93242.50;;;2.93;97.55
39681;BME280;26327;42.550;23.120;2024-01-25T02:00:30;93192.50;;;2.87;97.06
39681;BME280;26327;42.550;23.120;2024-01-25T02:02:56;93210.09;;;2.92;98.55
39681;BME280;26327;42.550;23.120;2024-01-25T02:05:23;93226.09;;;3.05;96.70
39681;BME280;26327;42.550;23.120;2024-01-25T02:07:49;93211.03;;;2.91;95.99
39681;BME280;26327;42.550;23.120;2024-01-25T02:10:14;93238.50;;;3.00;94.55
39681;BME280;26327;42.550;23.120;2024-01-25T02:12:39;93172.66;;;2.89;93.49
39681;BME280;26327;42.550;23.120;2024-01-25T02:15:05;93166.56;;;2.69;90.86
39681;BME280;26327;42.550;23.120;2024-01-25T02:17:30;93214.84;;;2.96;92.60
39681;BME280;26327;42.550;23.120;2024-01-25T02:19:56;93180.34;;;2.68;94.44
39681;BME280;26327;42.550;23.120;2024-01-25T02:22:22;93211.41;;;3.37;92.68
39681;BME280;26327;42.550;23.120;2024-01-25T02:24:47;93207.53;;;3.22;93.26
39681;BME280;26327;42.550;23.120;2024-01-25T02:27:13;93217.66;;;3.24;93.05
39681;BME280;26327;42.550;23.120;2024-01-25T02:29:38;93221.34;;;3.31;93.09
39681;BME280;26327;42.550;23.120;2024-01-25T02:32:04;93211.78;;;3.33;92.98
39681;BME280;26327;42.550;23.120;2024-01-25T02:34:29;93227.41;;;3.51;92.71
39681;BME280;26327;42.550;23.120;2024-01-25T02:36:55;93180.03;;;3.34;91.88
39681;BME280;26327;42.550;23.120;2024-01-25T02:39:20;93224.97;;;3.79;92.08
39681;BME280;26327;42.550;23.120;2024-01-25T02:41:45;93157.72;;;3.04;92.06
39681;BME280;26327;42.550;23.120;2024-01-25T02:44:11;93236.75;;;3.52;92.86
39681;BME280;26327;42.550;23.120;2024-01-25T02:46:37;93170.91;;;3.51;91.79
39681;BME280;26327;42.550;23.120;2024-01-25T02:49:03;93227.69;;;3.88;91.60
39681;BME280;26327;42.550;23.120;2024-01-25T02:51:29;93233.00;;;4.05;90.65
39681;BME280;26327;42.550;23.120;2024-01-25T02:53:54;93123.41;;;3.35;91.18
39681;BME280;26327;42.550;23.120;2024-01-25T02:56:19;93178.22;;;3.65;92.07
39681;BME280;26327;42.550;23.120;2024-01-25T02:58:45;93220.50;;;3.82;92.91
39681;BME280;26327;42.550;23.120;2024-01-25T03:01:10;93194.41;;;3.86;92.05
39681;BME280;26327;42.550;23.120;2024-01-25T03:03:36;93173.13;;;3.74;91.63
39681;BME280;26327;42.550;23.120;2024-01-25T03:06:02;93217.81;;;3.93;91.50
39681;BME280;26327;42.550;23.120;2024-01-25T03:08:27;93228.50;;;3.88;91.93
39681;BME280;26327;42.550;23.120;2024-01-25T03:10:53;93193.81;;;3.33;94.80
39681;BME280;26327;42.550;23.120;2024-01-25T03:13:18;93199.69;;;3.85;93.04
39681;BME280;26327;42.550;23.120;2024-01-25T03:15:44;93219.94;;;3.78;94.48
39681;BME280;26327;42.550;23.120;2024-01-25T03:18:10;93202.66;;;3.80;94.82
39681;BME280;26327;42.550;23.120;2024-01-25T03:20:36;93199.06;;;3.71;94.98
39681;BME280;26327;42.550;23.120;2024-01-25T03:23:01;93195.69;;;3.71;94.79
39681;BME280;26327;42.550;23.120;2024-01-25T03:25:27;93199.34;;;3.68;94.21
39681;BME280;26327;42.550;23.120;2024-01-25T03:27:53;93150.03;;;3.34;95.58
39681;BME280;26327;42.550;23.120;2024-01-25T03:30:18;93143.13;;;3.35;96.03
39681;BME280;26327;42.550;23.120;2024-01-25T03:32:45;93185.38;;;3.52;97.00
39681;BME280;26327;42.550;23.120;2024-01-25T03:35:11;93131.78;;;3.37;96.33
39681;BME280;26327;42.550;23.120;2024-01-25T03:37:36;93162.81;;;3.65;95.08
39681;BME280;26327;42.550;23.120;2024-01-25T03:40:02;93123.44;;;3.45;94.79
39681;BME280;26327;42.550;23.120;2024-01-25T03:42:28;93182.31;;;3.77;94.20
39681;BME280;26327;42.550;23.120;2024-01-25T03:44:53;93175.34;;;3.89;94.11
39681;BME280;26327;42.550;23.120;2024-01-25T03:47:19;93168.03;;;3.94;93.38
39681;BME280;26327;42.550;23.120;2024-01-25T03:49:45;93095.72;;;3.58;94.01
39681;BME280;26327;42.550;23.120;2024-01-25T03:52:10;93134.63;;;3.94;94.34
39681;BME280;26327;42.550;23.120;2024-01-25T03:54:35;93137.47;;;3.91;94.81
39681;BME280;26327;42.550;23.120;2024-01-25T03:57:01;93067.06;;;3.43;95.99
39681;BME280;26327;42.550;23.120;2024-01-25T03:59:26;93058.53;;;3.43;96.59
39681;BME280;26327;42.550;23.120;2024-01-25T04:01:52;93074.66;;;3.64;96.27
39681;BME280;26327;42.550;23.120;2024-01-25T04:04:17;93115.00;;;3.93;96.49
39681;BME280;26327;42.550;23.120;2024-01-25T04:06:43;93127.84;;;4.02;95.62
39681;BME280;26327;42.550;23.120;2024-01-25T04:09:09;93108.91;;;4.03;95.03
39681;BME280;26327;42.550;23.120;2024-01-25T04:11:36;93113.91;;;4.15;95.52
39681;BME280;26327;42.550;23.120;2024-01-25T04:14:02;93113.50;;;4.09;96.33
39681;BME280;26327;42.550;23.120;2024-01-25T04:16:27;93130.59;;;4.30;95.93
39681;BME280;26327;42.550;23.120;2024-01-25T04:18:53;93134.91;;;4.29;95.06
39681;BME280;26327;42.550;23.120;2024-01-25T04:21:18;93059.25;;;3.93;95.61
39681;BME280;26327;42.550;23.120;2024-01-25T04:23:44;93116.22;;;4.37;95.13
39681;BME280;26327;42.550;23.120;2024-01-25T04:26:09;93045.72;;;4.01;94.89
39681;BME280;26327;42.550;23.120;2024-01-25T04:28:34;93122.84;;;4.39;94.77
39681;BME280;26327;42.550;23.120;2024-01-25T04:31:02;93095.22;;;4.22;95.79
39681;BME280;26327;42.550;23.120;2024-01-25T04:33:28;93104.31;;;4.26;96.09
39681;BME280;26327;42.550;23.120;2024-01-25T04:35:54;93078.72;;;4.34;95.29
39681;BME280;26327;42.550;23.120;2024-01-25T04:38:19;93104.84;;;4.39;95.63
39681;BME280;26327;42.550;23.120;2024-01-25T04:40:44;93137.34;;;4.31;96.35
39681;BME280;26327;42.550;23.120;2024-01-25T04:43:10;93090.50;;;3.98;97.52
39681;BME280;26327;42.550;23.120;2024-01-25T04:45:36;93101.19;;;4.03;96.58
39681;BME280;26327;42.550;23.120;2024-01-25T04:48:02;93115.53;;;4.06;96.52
39681;BME280;26327;42.550;23.120;2024-01-25T04:50:28;93137.06;;;4.24;96.48
39681;BME280;26327;42.550;23.120;2024-01-25T04:52:53;93170.25;;;4.47;95.66
39681;BME280;26327;42.550;23.120;2024-01-25T04:55:19;93149.53;;;4.48;94.98
39681;BME280;26327;42.550;23.120;2024-01-25T04:57:45;93088.63;;;4.00;95.63
39681;BME280;26327;42.550;23.120;2024-01-25T05:00:11;93146.66;;;4.51;95.60
39681;BME280;26327;42.550;23.120;2024-01-25T05:02:36;93148.56;;;4.49;95.23
39681;BME280;26327;42.550;23.120;2024-01-25T05:05:02;93134.25;;;4.27;95.77
39681;BME280;26327;42.550;23.120;2024-01-25T05:07:27;93120.00;;;4.04;96.09
39681;BME280;26327;42.550;23.120;2024-01-25T05:09:53;93184.59;;;4.49;96.29
39681;BME280;26327;42.550;23.120;2024-01-25T05:12:18;93179.16;;;4.23;97.33
39681;BME280;26327;42.550;23.120;2024-01-25T05:14:44;93184.59;;;4.30;98.14
39681;BME280;26327;42.550;23.120;2024-01-25T05:17:09;93171.72;;;4.49;95.06
39681;BME280;26327;42.550;23.120;2024-01-25T05:19:35;93190.56;;;4.30;95.95
39681;BME280;26327;42.550;23.120;2024-01-25T05:22:00;93177.53;;;4.13;97.48
39681;BME280;26327;42.550;23.120;2024-01-25T05:24:26;93175.38;;;4.18;97.34
39681;BME280;26327;42.550;23.120;2024-01-25T05:26:52;93147.72;;;3.81;98.15
39681;BME280;26327;42.550;23.120;2024-01-25T05:29:17;93155.88;;;3.96;97.48
39681;BME280;26327;42.550;23.120;2024-01-25T05:31:42;93100.59;;;3.52;98.50
39681;BME280;26327;42.550;23.120;2024-01-25T05:34:08;93198.38;;;4.19;98.84
39681;BME280;26327;42.550;23.120;2024-01-25T05:36:33;93185.34;;;3.92;99.38
39681;BME280;26327;42.550;23.120;2024-01-25T05:38:59;93203.50;;;4.09;99.73
39681;BME280;26327;42.550;23.120;2024-01-25T05:41:24;93201.34;;;4.24;98.84
39681;BME280;26327;42.550;23.120;2024-01-25T05:43:49;93207.06;;;4.37;97.92
39681;BME280;26327;42.550;23.120;2024-01-25T05:46:15;93232.41;;;4.52;97.87
39681;BME280;26327;42.550;23.120;2024-01-25T05:48:40;93229.81;;;4.32;98.96
39681;BME280;26327;42.550;23.120;2024-01-25T05:51:05;93218.81;;;4.21;99.31
39681;BME280;26327;42.550;23.120;2024-01-25T05:53:31;93174.53;;;4.07;98.93
39681;BME280;26327;42.550;23.120;2024-01-25T05:55:57;93237.41;;;4.34;99.18
39681;BME280;26327;42.550;23.120;2024-01-25T05:58:22;93219.50;;;4.23;99.68
39681;BME280;26327;42.550;23.120;2024-01-25T06:00:48;93216.28;;;4.30;99.69
39681;BME280;26327;42.550;23.120;2024-01-25T06:03:13;93212.22;;;4.28;99.32
39681;BME280;26327;42.550;23.120;2024-01-25T06:09:00;93178.06;;;4.06;99.48
39681;BME280;26327;42.550;23.120;2024-01-25T06:11:26;93231.56;;;4.32;99.92
39681;BME280;26327;42.550;23.120;2024-01-25T06:13:51;93240.66;;;4.36;99.64
39681;BME280;26327;42.550;23.120;2024-01-25T06:16:17;93232.94;;;4.46;99.11
39681;BME280;26327;42.550;23.120;2024-01-25T06:18:42;93232.25;;;4.53;98.77
39681;BME280;26327;42.550;23.120;2024-01-25T06:21:07;93240.78;;;4.44;99.39
39681;BME280;26327;42.550;23.120;2024-01-25T06:23:33;93244.44;;;4.51;99.14
39681;BME280;26327;42.550;23.120;2024-01-25T06:25:58;93245.22;;;4.23;100.00
39681;BME280;26327;42.550;23.120;2024-01-25T06:28:24;93231.25;;;4.16;100.00
39681;BME280;26327;42.550;23.120;2024-01-25T06:30:50;93206.63;;;4.13;100.00
39681;BME280;26327;42.550;23.120;2024-01-25T06:33:16;93242.81;;;4.31;100.00
39681;BME280;26327;42.550;23.120;2024-01-25T06:35:42;93263.41;;;4.50;99.48
39681;BME280;26327;42.550;23.120;2024-01-25T06:38:07;93185.94;;;4.34;98.66
39681;BME280;26327;42.550;23.120;2024-01-25T06:40:32;93138.00;;;3.94;98.85
39681;BME280;26327;42.550;23.120;2024-01-25T06:42:58;93195.84;;;4.38;99.33
39681;BME280;26327;42.550;23.120;2024-01-25T06:45:23;93231.72;;;4.50;99.58
39681;BME280;26327;42.550;23.120;2024-01-25T06:47:48;93245.25;;;4.52;100.00
39681;BME280;26327;42.550;23.120;2024-01-25T06:50:14;93165.47;;;4.03;100.00
39681;BME280;26327;42.550;23.120;2024-01-25T06:52:39;93222.25;;;4.60;99.49
39681;BME280;26327;42.550;23.120;2024-01-25T06:55:05;93189.34;;;4.34;99.77
39681;BME280;26327;42.550;23.120;2024-01-25T06:57:30;93236.06;;;4.39;100.00
39681;BME280;26327;42.550;23.120;2024-01-25T06:59:56;93253.94;;;4.51;100.00
39681;BME280;26327;42.550;23.120;2024-01-25T07:02:21;93222.78;;;4.54;100.00
39681;BME280;26327;42.550;23.120;2024-01-25T07:04:46;93193.25;;;4.48;98.86
39681;BME280;26327;42.550;23.120;2024-01-25T07:07:12;93233.19;;;4.71;98.90
39681;BME280;26327;42.550;23.120;2024-01-25T07:09:37;93204.78;;;4.44;98.06
39681;BME280;26327;42.550;23.120;2024-01-25T07:12:03;93242.00;;;4.40;99.75
39681;BME280;26327;42.550;23.120;2024-01-25T07:14:28;93222.38;;;4.58;98.66
39681;BME280;26327;42.550;23.120;2024-01-25T07:16:53;93228.59;;;4.65;99.13
39681;BME280;26327;42.550;23.120;2024-01-25T07:19:19;93226.69;;;4.67;98.57
39681;BME280;26327;42.550;23.120;2024-01-25T07:21:44;93243.38;;;4.83;99.13
39681;BME280;26327;42.550;23.120;2024-01-25T07:24:11;93238.63;;;4.68;99.27
39681;BME280;26327;42.550;23.120;2024-01-25T07:26:36;93138.00;;;4.14;98.94
39681;BME280;26327;42.550;23.120;2024-01-25T07:29:02;93245.16;;;4.82;99.09
39681;BME280;26327;42.550;23.120;2024-01-25T07:31:28;93226.69;;;4.67;99.75
39681;BME280;26327;42.550;23.120;2024-01-25T07:33:53;93237.16;;;4.85;99.41
39681;BME280;26327;42.550;23.120;2024-01-25T07:36:20;93182.44;;;4.73;98.08
39681;BME280;26327;42.550;23.120;2024-01-25T07:38:45;93219.00;;;4.87;98.72
39681;BME280;26327;42.550;23.120;2024-01-25T07:41:14;93247.81;;;5.10;98.66
39681;BME280;26327;42.550;23.120;2024-01-25T07:43:40;93234.41;;;5.06;97.88
39681;BME280;26327;42.550;23.120;2024-01-25T07:46:06;93237.34;;;5.40;96.18
39681;BME280;26327;42.550;23.120;2024-01-25T07:48:32;93239.50;;;5.45;96.38
39681;BME280;26327;42.550;23.120;2024-01-25T07:50:57;93153.22;;;5.02;96.01
39681;BME280;26327;42.550;23.120;2024-01-25T07:53:23;93242.09;;;5.82;93.89
39681;BME280;26327;42.550;23.120;2024-01-25T07:55:48;93200.50;;;5.57;92.99
39681;BME280;26327;42.550;23.120;2024-01-25T07:58:16;93243.28;;;5.87;93.13
39681;BME280;26327;42.550;23.120;2024-01-25T08:00:42;93251.53;;;6.00;91.45
39681;BME280;26327;42.550;23.120;2024-01-25T08:03:08;93191.47;;;5.44;92.65
39681;BME280;26327;42.550;23.120;2024-01-25T08:05:33;93246.81;;;5.86;92.41
39681;BME280;26327;42.550;23.120;2024-01-25T08:07:59;93246.44;;;5.81;91.13
39681;BME280;26327;42.550;23.120;2024-01-25T08:10:24;93190.91;;;5.50;91.22
39681;BME280;26327;42.550;23.120;2024-01-25T08:12:50;93237.13;;;5.71;93.08
39681;BME280;26327;42.550;23.120;2024-01-25T08:15:15;93229.34;;;5.80;92.86
39681;BME280;26327;42.550;23.120;2024-01-25T08:17:41;93231.69;;;6.01;91.44
39681;BME280;26327;42.550;23.120;2024-01-25T08:20:07;93234.78;;;5.77;92.44
39681;BME280;26327;42.550;23.120;2024-01-25T08:22:33;93250.22;;;5.40;94.68
39681;BME280;26327;42.550;23.120;2024-01-25T08:24:59;93249.69;;;5.17;96.00
39681;BME280;26327;42.550;23.120;2024-01-25T08:27:24;93188.22;;;4.95;95.65
39681;BME280;26327;42.550;23.120;2024-01-25T08:29:50;93171.28;;;4.92;96.30
39681;BME280;26327;42.550;23.120;2024-01-25T08:32:15;93235.63;;;5.12;97.15
39681;BME280;26327;42.550;23.120;2024-01-25T08:34:40;93235.34;;;5.05;96.87
39681;BME280;26327;42.550;23.120;2024-01-25T08:37:06;93209.25;;;4.81;96.26
39681;BME280;26327;42.550;23.120;2024-01-25T08:39:32;93265.72;;;5.11;97.33
39681;BME280;26327;42.550;23.120;2024-01-25T08:41:57;93256.09;;;5.03;98.16
39681;BME280;26327;42.550;23.120;2024-01-25T08:44:26;93261.53;;;5.00;97.68
39681;BME280;26327;42.550;23.120;2024-01-25T08:46:52;93276.69;;;5.03;97.41
39681;BME280;26327;42.550;23.120;2024-01-25T08:52:39;93214.47;;;5.08;94.66
39681;BME280;26327;42.550;23.120;2024-01-25T08:55:06;93257.56;;;5.35;94.03
39681;BME280;26327;42.550;23.120;2024-01-25T08:57:32;93205.06;;;5.36;92.06
39681;BME280;26327;42.550;23.120;2024-01-25T08:59:57;93186.91;;;5.37;88.06
39681;BME280;26327;42.550;23.120;2024-01-25T09:02:26;93271.94;;;5.84;87.67
39681;BME280;26327;42.550;23.120;2024-01-25T09:04:53;93251.81;;;5.97;89.40
39681;BME280;26327;42.550;23.120;2024-01-25T09:07:22;93208.41;;;5.93;89.86
39681;BME280;26327;42.550;23.120;2024-01-25T09:09:48;93259.22;;;6.38;88.60
39681;BME280;26327;42.550;23.120;2024-01-25T09:15:35;93244.75;;;6.27;88.03
39681;BME280;26327;42.550;23.120;2024-01-25T09:18:00;93197.81;;;6.14;87.70
39681;BME280;26327;42.550;23.120;2024-01-25T09:23:48;93161.78;;;5.67;87.48
39681;BME280;26327;42.550;23.120;2024-01-25T09:26:13;93249.69;;;6.20;86.95
39681;BME280;26327;42.550;23.120;2024-01-25T09:28:38;93233.94;;;6.14;88.73
39681;BME280;26327;42.550;23.120;2024-01-25T09:31:04;93231.03;;;6.26;88.45
39681;BME280;26327;42.550;23.120;2024-01-25T09:33:29;93206.34;;;6.24;88.06
39681;BME280;26327;42.550;23.120;2024-01-25T09:39:16;93227.94;;;6.58;87.11
39681;BME280;26327;42.550;23.120;2024-01-25T09:41:42;93215.50;;;6.72;80.29
39681;BME280;26327;42.550;23.120;2024-01-25T09:44:08;93229.81;;;6.66;80.51
39681;BME280;26327;42.550;23.120;2024-01-25T09:46:33;93155.38;;;6.44;80.49
39681;BME280;26327;42.550;23.120;2024-01-25T09:49:00;93166.53;;;6.44;80.97
39681;BME280;26327;42.550;23.120;2024-01-25T09:51:26;93165.06;;;6.42;80.24
39681;BME280;26327;42.550;23.120;2024-01-25T09:53:53;93207.00;;;6.61;80.57
39681;BME280;26327;42.550;23.120;2024-01-25T09:56:20;93218.75;;;6.74;79.16
39681;BME280;26327;42.550;23.120;2024-01-25T09:58:46;93156.44;;;6.33;79.89
39681;BME280;26327;42.550;23.120;2024-01-25T10:01:14;93189.47;;;6.47;81.81
39681;BME280;26327;42.550;23.120;2024-01-25T10:03:43;93161.22;;;6.28;82.08
39681;BME280;26327;42.550;23.120;2024-01-25T10:06:10;93163.34;;;6.32;83.16
39681;BME280;26327;42.550;23.120;2024-01-25T10:08:36;93190.50;;;6.54;84.39
39681;BME280;26327;42.550;23.120;2024-01-25T10:11:02;93177.28;;;6.57;82.83
39681;BME280;26327;42.550;23.120;2024-01-25T10:13:28;93160.78;;;6.68;78.89
39681;BME280;26327;42.550;23.120;2024-01-25T10:15:53;93125.88;;;6.46;80.39
39681;BME280;26327;42.550;23.120;2024-01-25T10:18:20;93180.47;;;6.69;82.43
39681;BME280;26327;42.550;23.120;2024-01-25T10:20:45;93134.50;;;6.55;80.94
39681;BME280;26327;42.550;23.120;2024-01-25T10:23:11;93137.03;;;6.47;80.74
39681;BME280;26327;42.550;23.120;2024-01-25T10:25:36;93122.19;;;6.49;80.26
39681;BME280;26327;42.550;23.120;2024-01-25T10:28:04;93171.00;;;6.78;78.91
39681;BME280;26327;42.550;23.120;2024-01-25T10:30:32;93118.06;;;6.56;77.78
39681;BME280;26327;42.550;23.120;2024-01-25T10:32:58;93176.25;;;6.86;79.28
39681;BME280;26327;42.550;23.120;2024-01-25T10:38:48;93167.97;;;6.82;77.27
39681;BME280;26327;42.550;23.120;2024-01-25T10:44:35;93170.16;;;6.95;76.39
39681;BME280;26327;42.550;23.120;2024-01-25T10:47:01;93171.03;;;7.04;76.44
39681;BME280;26327;42.550;23.120;2024-01-25T10:56:10;93156.66;;;7.27;73.18
39681;BME280;26327;42.550;23.120;2024-01-25T10:58:40;93156.09;;;7.41;70.02
39681;BME280;26327;42.550;23.120;2024-01-25T11:04:29;93139.25;;;7.37;70.23
39681;BME280;26327;42.550;23.120;2024-01-25T11:07:05;93105.94;;;7.00;72.96
39681;BME280;26327;42.550;23.120;2024-01-25T11:09:31;93128.34;;;7.17;72.04
39681;BME280;26327;42.550;23.120;2024-01-25T11:11:58;93134.84;;;7.04;73.42
39681;BME280;26327;42.550;23.120;2024-01-25T11:14:25;93133.44;;;6.83;73.44
39681;BME280;26327;42.550;23.120;2024-01-25T11:16:51;93117.84;;;6.67;74.34
39681;BME280;26327;42.550;23.120;2024-01-25T11:19:18;93069.34;;;6.35;72.96
39681;BME280;26327;42.550;23.120;2024-01-25T11:21:45;93131.91;;;6.73;75.22
39681;BME280;26327;42.550;23.120;2024-01-25T11:24:21;93120.34;;;6.59;72.96
39681;BME280;26327;42.550;23.120;2024-01-25T11:26:47;93127.28;;;6.58;72.79
39681;BME280;26327;42.550;23.120;2024-01-25T11:29:14;93069.81;;;6.30;73.65
39681;BME280;26327;42.550;23.120;2024-01-25T11:31:46;93094.44;;;6.25;75.25
39681;BME280;26327;42.550;23.120;2024-01-25T11:34:12;93142.91;;;6.75;75.55
39681;BME280;26327;42.550;23.120;2024-01-25T11:36:38;93145.72;;;6.46;77.19
39681;BME280;26327;42.550;23.120;2024-01-25T11:39:04;93123.78;;;6.24;76.67
39681;BME280;26327;42.550;23.120;2024-01-25T11:41:31;93129.00;;;6.32;77.46
39681;BME280;26327;42.550;23.120;2024-01-25T11:43:57;93118.09;;;6.82;75.55
39681;BME280;26327;42.550;23.120;2024-01-25T11:46:22;93016.13;;;5.63;77.67
39681;BME280;26327;42.550;23.120;2024-01-25T11:48:48;93088.06;;;6.02;79.87
39681;BME280;26327;42.550;23.120;2024-01-25T11:51:13;93128.03;;;6.33;79.88
39681;BME280;26327;42.550;23.120;2024-01-25T11:53:40;93111.16;;;6.21;80.47
39681;BME280;26327;42.550;23.120;2024-01-25T11:56:08;93030.22;;;5.86;80.31
39681;BME280;26327;42.550;23.120;2024-01-25T11:58:38;93111.91;;;6.31;81.40
39681;BME280;26327;42.550;23.120;2024-01-25T12:01:05;93115.78;;;6.35;82.64
39681;BME280;26327;42.550;23.120;2024-01-25T12:03:36;93125.59;;;6.31;83.76
39681;BME280;26327;42.550;23.120;2024-01-25T12:06:03;93118.25;;;6.19;83.72
39681;BME280;26327;42.550;23.120;2024-01-25T12:08:30;93122.16;;;6.23;80.29
39681;BME280;26327;42.550;23.120;2024-01-25T12:11:06;93108.59;;;6.21;81.18
39681;BME280;26327;42.550;23.120;2024-01-25T12:13:38;93117.78;;;6.23;79.53
39681;BME280;26327;42.550;23.120;2024-01-25T12:22:58;93113.34;;;5.98;81.08
39681;BME280;26327;42.550;23.120;2024-01-25T12:25:23;93082.28;;;5.72;83.00
39681;BME280;26327;42.550;23.120;2024-01-25T12:31:10;93103.84;;;5.98;81.90
39681;BME280;26327;42.550;23.120;2024-01-25T12:33:36;93100.31;;;5.99;77.80
39681;BME280;26327;42.550;23.120;2024-01-25T12:36:02;93050.75;;;5.78;77.89
39681;BME280;26327;42.550;23.120;2024-01-25T12:38:28;93045.97;;;5.83;79.14
39681;BME280;26327;42.550;23.120;2024-01-25T12:40:54;93036.03;;;5.88;77.72
39681;BME280;26327;42.550;23.120;2024-01-25T12:43:20;93084.84;;;6.35;77.40
39681;BME280;26327;42.550;23.120;2024-01-25T12:45:49;93079.00;;;6.33;77.29
39681;BME280;26327;42.550;23.120;2024-01-25T12:48:14;93071.06;;;6.70;77.65
39681;BME280;26327;42.550;23.120;2024-01-25T12:50:41;93072.09;;;7.45;73.18
39681;BME280;26327;42.550;23.120;2024-01-25T12:53:07;93056.16;;;7.58;68.88
39681;BME280;26327;42.550;23.120;2024-01-25T12:55:35;93062.09;;;8.17;66.53
39681;BME280;26327;42.550;23.120;2024-01-25T12:58:00;93068.19;;;7.92;67.47
39681;BME280;26327;42.550;23.120;2024-01-25T13:00:26;93073.97;;;7.69;64.95
39681;BME280;26327;42.550;23.120;2024-01-25T13:02:51;93010.69;;;7.39;68.92
39681;BME280;26327;42.550;23.120;2024-01-25T13:05:19;93054.88;;;7.62;67.85
39681;BME280;26327;42.550;23.120;2024-01-25T13:07:44;92992.22;;;7.26;68.09
39681;BME280;26327;42.550;23.120;2024-01-25T13:10:10;93037.34;;;7.48;71.59
39681;BME280;26327;42.550;23.120;2024-01-25T13:12:37;93021.53;;;7.51;68.98
39681;BME280;26327;42.550;23.120;2024-01-25T13:15:03;93024.97;;;7.60;70.22
39681;BME280;26327;42.550;23.120;2024-01-25T13:17:28;93050.19;;;7.66;68.89
39681;BME280;26327;42.550;23.120;2024-01-25T13:19:54;93051.28;;;7.55;69.23
39681;BME280;26327;42.550;23.120;2024-01-25T13:22:19;93033.69;;;7.58;68.41
39681;BME280;26327;42.550;23.120;2024-01-25T13:24:46;93038.72;;;7.60;68.76
39681;BME280;26327;42.550;23.120;2024-01-25T13:27:12;93036.06;;;7.44;69.18
39681;BME280;26327;42.550;23.120;2024-01-25T13:29:38;93051.91;;;7.49;70.45
39681;BME280;26327;42.550;23.120;2024-01-25T13:32:03;93056.41;;;7.47;71.16
39681;BME280;26327;42.550;23.120;2024-01-25T13:34:29;93040.19;;;7.20;70.76
39681;BME280;26327;42.550;23.120;2024-01-25T13:36:54;93010.69;;;7.05;69.59
39681;BME280;26327;42.550;23.120;2024-01-25T13:39:20;92956.19;;;6.74;69.62
39681;BME280;26327;42.550;23.120;2024-01-25T13:41:45;93049.94;;;7.09;69.53
39681;BME280;26327;42.550;23.120;2024-01-25T13:44:13;93047.97;;;7.29;71.22